createdAt,value
2022-09-15T00:00:13.723Z,97725.34
2022-09-15T00:02:46.107Z,97719.47
2022-09-15T00:05:15.976Z,97727.81
2022-09-15T00:07:46.293Z,97735.47
2022-09-15T00:10:16.372Z,97728.47
2022-09-15T00:12:47.690Z,97725.56
2022-09-15T00:15:19.026Z,97728.06
2022-09-15T00:17:55.005Z,97733.47
2022-09-15T00:20:25.601Z,97729.50
2022-09-15T00:22:55.585Z,97733.72
2022-09-15T00:25:25.641Z,97726.91
2022-09-15T00:27:55.802Z,97732.06
2022-09-15T00:30:26.401Z,97728.13
2022-09-15T00:32:56.627Z,97729.31
2022-09-15T00:35:26.794Z,97727.75
2022-09-15T00:37:57.198Z,97732.78
2022-09-15T00:40:28.830Z,97727.97
2022-09-15T00:42:59.234Z,97735.16
2022-09-15T00:45:29.031Z,97731.81
2022-09-15T00:47:59.839Z,97731.81
2022-09-15T00:50:30.655Z,97733.38
2022-09-15T00:53:07.350Z,97736.22
2022-09-15T00:55:56.153Z,97737.50
2022-09-15T00:58:40.374Z,97744.97
2022-09-15T01:01:10.921Z,97736.81
2022-09-15T01:03:42.209Z,97743.19
2022-09-15T01:06:36.751Z,97738.25
2022-09-15T01:09:17.880Z,97743.28
2022-09-15T01:11:48.247Z,97741.63
2022-09-15T01:14:19.123Z,97740.69
2022-09-15T01:16:56.978Z,97747.09
2022-09-15T01:19:44.694Z,97745.16
2022-09-15T01:22:33.256Z,97750.66
2022-09-15T01:25:11.025Z,97748.28
2022-09-15T01:28:04.911Z,97754.13
2022-09-15T01:30:45.061Z,97756.44
2022-09-15T01:33:45.649Z,97755.69
2022-09-15T01:36:29.783Z,97759.25
2022-09-15T01:39:14.812Z,97748.47
2022-09-15T01:42:02.746Z,97758.94
2022-09-15T01:44:42.091Z,97754.44
2022-09-15T01:47:16.965Z,97758.50
2022-09-15T01:50:01.303Z,97753.25
2022-09-15T01:52:32.711Z,97761.59
2022-09-15T01:55:11.758Z,97765.34
2022-09-15T01:57:42.599Z,97769.50
2022-09-15T02:00:13.040Z,97776.47
2022-09-15T02:02:59.431Z,97770.91
2022-09-15T02:05:51.203Z,97777.09
2022-09-15T02:08:40.101Z,97775.94
2022-09-15T02:11:22.020Z,97774.66
2022-09-15T02:14:13.002Z,97772.00
2022-09-15T02:16:50.492Z,97789.06
2022-09-15T02:19:35.225Z,97785.09
2022-09-15T02:22:18.998Z,97789.25
2022-09-15T02:25:04.683Z,97796.56
2022-09-15T02:27:40.338Z,97800.19
2022-09-15T02:30:15.595Z,97793.84
2022-09-15T02:32:59.822Z,97802.44
2022-09-15T02:35:33.222Z,97798.88
2022-09-15T02:38:05.541Z,97806.34
2022-09-15T02:40:38.873Z,97811.66
2022-09-15T02:43:13.823Z,97804.03
2022-09-15T02:45:45.546Z,97798.75
2022-09-15T02:48:16.128Z,97803.59
2022-09-15T02:50:46.842Z,97798.56
2022-09-15T02:53:16.751Z,97809.38
2022-09-15T02:55:46.222Z,97803.91
2022-09-15T02:58:17.053Z,97802.66
2022-09-15T03:00:46.922Z,97804.56
2022-09-15T03:03:17.813Z,97801.84
2022-09-15T03:05:47.587Z,97802.28
2022-09-15T03:08:17.640Z,97802.91
2022-09-15T03:10:48.320Z,97805.97
2022-09-15T03:13:19.868Z,97811.66
2022-09-15T03:15:50.972Z,97809.22
2022-09-15T03:18:21.074Z,97812.25
2022-09-15T03:20:50.544Z,97813.00
2022-09-15T03:23:21.410Z,97805.06
2022-09-15T03:25:51.384Z,97804.88
2022-09-15T03:28:21.021Z,97813.75
2022-09-15T03:30:51.676Z,97809.59
2022-09-15T03:33:22.035Z,97809.06
2022-09-15T03:35:53.754Z,97813.13
2022-09-15T03:38:28.103Z,97815.03
2022-09-15T03:41:00.302Z,97812.19
2022-09-15T03:43:31.926Z,97807.59
2022-09-15T03:46:03.105Z,97812.44
2022-09-15T03:48:36.006Z,97811.13
2022-09-15T03:51:07.410Z,97809.50
2022-09-15T03:53:38.850Z,97809.75
2022-09-15T03:56:27.498Z,97815.06
2022-09-15T03:58:57.261Z,97815.09
2022-09-15T04:01:27.128Z,97814.78
2022-09-15T04:03:59.321Z,97809.78
2022-09-15T04:06:29.453Z,97818.94
2022-09-15T04:09:01.805Z,97814.22
2022-09-15T04:11:32.207Z,97810.16
2022-09-15T04:14:02.343Z,97816.13
2022-09-15T04:16:31.923Z,97816.41
2022-09-15T04:19:01.775Z,97816.28
2022-09-15T04:21:33.211Z,97822.25
2022-09-15T04:24:06.170Z,97820.66
2022-09-15T04:26:38.866Z,97816.13
2022-09-15T04:29:21.165Z,97810.91
2022-09-15T04:31:51.699Z,97816.34
2022-09-15T04:34:22.480Z,97811.16
2022-09-15T04:36:52.850Z,97811.91
2022-09-15T04:39:24.242Z,97813.69
2022-09-15T04:41:54.166Z,97811.91
2022-09-15T04:44:24.951Z,97807.84
2022-09-15T04:46:54.883Z,97810.88
2022-09-15T04:49:26.056Z,97806.00
2022-09-15T04:51:56.460Z,97809.53
2022-09-15T04:54:30.012Z,97804.81
2022-09-15T04:56:59.992Z,97806.59
2022-09-15T04:59:30.071Z,97803.81
2022-09-15T05:02:00.243Z,97803.69
2022-09-15T05:04:30.340Z,97804.25
2022-09-15T05:07:00.377Z,97808.66
2022-09-15T05:09:33.423Z,97808.47
2022-09-15T05:12:04.019Z,97800.53
2022-09-15T05:14:38.158Z,97808.44
2022-09-15T05:17:08.070Z,97795.50
2022-09-15T05:19:38.032Z,97799.59
2022-09-15T05:22:07.959Z,97791.03
2022-09-15T05:24:37.727Z,97784.84
2022-09-15T05:27:07.943Z,97781.47
2022-09-15T05:29:39.662Z,97781.84
2022-09-15T05:32:11.283Z,97787.88
2022-09-15T05:34:41.016Z,97786.44
2022-09-15T05:37:11.901Z,97784.91
2022-09-15T05:39:42.354Z,97788.03
2022-09-15T05:42:12.654Z,97782.25
2022-09-15T05:44:42.667Z,97784.56
2022-09-15T05:47:14.249Z,97776.63
2022-09-15T05:49:44.476Z,97776.19
2022-09-15T05:52:14.374Z,97774.34
2022-09-15T05:54:44.501Z,97773.59
2022-09-15T05:57:15.187Z,97771.66
2022-09-15T05:59:45.688Z,97763.97
2022-09-15T06:02:16.021Z,97762.94
2022-09-15T06:04:45.888Z,97772.31
2022-09-15T06:07:21.123Z,97765.66
2022-09-15T06:09:51.234Z,97757.53
2022-09-15T06:12:21.971Z,97757.28
2022-09-15T06:14:52.306Z,97758.56
2022-09-15T06:17:24.679Z,97765.19
2022-09-15T06:19:54.509Z,97753.53
2022-09-15T06:22:24.004Z,97750.16
2022-09-15T06:24:54.586Z,97742.41
2022-09-15T06:27:24.440Z,97738.59
2022-09-15T06:29:54.161Z,97735.16
2022-09-15T06:32:25.109Z,97733.72
2022-09-15T06:34:54.929Z,97739.72
2022-09-15T06:37:25.339Z,97728.56
2022-09-15T06:39:55.309Z,97727.44
2022-09-15T06:42:25.729Z,97723.28
2022-09-15T06:44:56.006Z,97711.50
2022-09-15T06:47:26.157Z,97714.34
2022-09-15T06:49:57.001Z,97708.13
2022-09-15T06:52:27.712Z,97714.81
2022-09-15T06:54:57.453Z,97707.47
2022-09-15T06:57:28.149Z,97706.44
2022-09-15T06:59:59.188Z,97699.28
2022-09-15T07:02:30.398Z,97693.03
2022-09-15T07:05:00.710Z,97692.44
2022-09-15T07:07:31.743Z,97690.16
2022-09-15T07:10:02.179Z,97686.84
2022-09-15T07:12:33.984Z,97688.94
2022-09-15T07:15:03.852Z,97680.81
2022-09-15T07:17:38.981Z,97672.88
2022-09-15T07:20:09.120Z,97673.06
2022-09-15T07:22:40.260Z,97669.72
2022-09-15T07:25:10.563Z,97664.88
2022-09-15T07:27:41.705Z,97664.22
2022-09-15T07:30:15.064Z,97660.53
2022-09-15T07:32:45.473Z,97649.28
2022-09-15T07:35:15.393Z,97643.91
2022-09-15T07:37:46.630Z,97643.41
2022-09-15T07:40:17.139Z,97635.22
2022-09-15T07:42:47.874Z,97632.72
2022-09-15T07:45:33.490Z,97629.59
2022-09-15T07:48:05.327Z,97633.09
2022-09-15T07:50:42.076Z,97629.63
2022-09-15T07:53:13.989Z,97633.09
2022-09-15T07:55:43.711Z,97625.47
2022-09-15T07:58:13.781Z,97615.84
2022-09-15T08:00:44.307Z,97611.69
2022-09-15T08:03:14.978Z,97603.06
2022-09-15T08:05:45.814Z,97602.34
2022-09-15T08:08:17.912Z,97596.00
2022-09-15T08:10:56.950Z,97588.25
2022-09-15T08:13:31.335Z,97583.59
2022-09-15T08:16:16.933Z,97581.34
2022-09-15T08:18:55.670Z,97577.56
2022-09-15T08:21:27.395Z,97579.63
2022-09-15T08:24:00.370Z,97569.28
2022-09-15T08:26:32.868Z,97577.94
2022-09-15T08:29:03.382Z,97570.72
2022-09-15T08:31:34.179Z,97574.34
2022-09-15T08:34:07.691Z,97568.03
2022-09-15T08:36:37.952Z,97568.41
2022-09-15T08:39:08.445Z,97551.75
2022-09-15T08:41:48.220Z,97549.56
2022-09-15T08:44:25.021Z,97538.28
2022-09-15T08:47:00.749Z,97537.13
2022-09-15T08:49:51.951Z,97515.13
2022-09-15T08:52:32.175Z,97507.47
2022-09-15T08:55:17.580Z,97510.97
2022-09-15T08:57:47.967Z,97509.44
2022-09-15T09:00:18.994Z,97507.72
2022-09-15T09:03:20.764Z,97505.06
2022-09-15T09:06:07.897Z,97492.09
2022-09-15T09:08:49.771Z,97489.84
2022-09-15T09:11:52.223Z,97494.78
2022-09-15T09:14:56.133Z,97492.81
2022-09-15T09:17:26.255Z,97482.28
2022-09-15T09:20:03.545Z,97487.25
2022-09-15T09:22:39.279Z,97482.03
2022-09-15T09:25:27.090Z,97473.44
2022-09-15T09:28:03.875Z,97470.38
2022-09-15T09:30:37.023Z,97478.28
2022-09-15T09:33:13.326Z,97463.34
2022-09-15T09:35:51.049Z,97461.47
2022-09-15T09:38:30.287Z,97455.53
2022-09-15T09:41:02.484Z,97449.47
2022-09-15T09:43:34.702Z,97449.06
2022-09-15T09:46:12.502Z,97461.69
2022-09-15T09:48:47.878Z,97449.78
2022-09-15T09:51:38.278Z,97441.94
2022-09-15T09:54:14.076Z,97440.28
2022-09-15T09:56:52.466Z,97437.31
2022-09-15T09:59:40.709Z,97440.97
2022-09-15T10:02:10.834Z,97438.84
2022-09-15T10:04:52.293Z,97443.63
2022-09-15T10:07:35.544Z,97447.31
2022-09-15T10:10:06.852Z,97437.22
2022-09-15T10:12:43.364Z,97430.72
2022-09-15T10:15:28.315Z,97429.03
2022-09-15T10:18:00.070Z,97428.88
2022-09-15T10:20:51.312Z,97422.06
2022-09-15T10:23:24.271Z,97419.94
2022-09-15T10:25:59.825Z,97418.59
2022-09-15T10:28:31.514Z,97410.44
2022-09-15T10:31:07.656Z,97411.75
2022-09-15T10:33:43.487Z,97416.25
2022-09-15T10:36:20.479Z,97413.09
2022-09-15T10:39:14.488Z,97403.09
2022-09-15T10:42:23.641Z,97390.97
2022-09-15T10:45:05.685Z,97393.94
2022-09-15T10:48:17.036Z,97386.78
2022-09-15T10:51:06.461Z,97374.59
2022-09-15T10:54:11.716Z,97371.72
2022-09-15T10:56:44.435Z,97371.66
2022-09-15T10:59:47.269Z,97362.28
2022-09-15T11:02:44.896Z,97362.59
2022-09-15T11:05:33.212Z,97382.31
2022-09-15T11:08:06.070Z,97376.16
2022-09-15T11:11:01.839Z,97376.28
2022-09-15T11:13:43.348Z,97366.41
2022-09-15T11:16:32.797Z,97368.53
2022-09-15T11:19:04.625Z,97365.63
2022-09-15T11:21:43.874Z,97364.25
2022-09-15T11:24:14.202Z,97368.78
2022-09-15T11:26:54.302Z,97363.13
2022-09-15T11:29:45.809Z,97352.34
2022-09-15T11:32:32.811Z,97363.47
2022-09-15T11:35:32.974Z,97354.84
2022-09-15T11:38:32.083Z,97347.53
2022-09-15T11:41:36.300Z,97342.22
2022-09-15T11:44:21.060Z,97349.19
2022-09-15T11:47:03.429Z,97355.84
2022-09-15T11:50:06.923Z,97350.84
2022-09-15T11:52:55.374Z,97340.38
2022-09-15T11:55:40.360Z,97346.53
2022-09-15T11:58:58.647Z,97343.88
2022-09-15T12:01:50.023Z,97335.75
2022-09-15T12:04:34.304Z,97341.72
2022-09-15T12:07:04.332Z,97332.22
2022-09-15T12:09:35.648Z,97333.72
2022-09-15T12:12:13.841Z,97329.94
2022-09-15T12:14:47.221Z,97327.91
2022-09-15T12:17:25.878Z,97324.75
2022-09-15T12:20:24.078Z,97329.06
2022-09-15T12:23:13.619Z,97335.19
2022-09-15T12:26:06.996Z,97334.16
2022-09-15T12:28:44.728Z,97328.19
2022-09-15T12:31:32.404Z,97331.34
2022-09-15T12:34:06.342Z,97332.94
2022-09-15T12:36:51.127Z,97334.31
2022-09-15T12:39:25.760Z,97325.78
2022-09-15T12:42:06.812Z,97328.94
2022-09-15T12:44:44.133Z,97326.75
2022-09-15T12:47:22.931Z,97323.16
2022-09-15T12:49:55.582Z,97326.78
2022-09-15T12:52:27.417Z,97329.78
2022-09-15T12:55:04.688Z,97334.75
2022-09-15T12:57:39.581Z,97320.97
2022-09-15T13:00:33.725Z,97327.78
2022-09-15T13:03:09.188Z,97330.06
2022-09-15T13:05:47.695Z,97325.41
2022-09-15T13:08:40.100Z,97324.09
2022-09-15T13:11:40.340Z,97324.06
2022-09-15T13:14:11.979Z,97331.94
2022-09-15T13:16:48.238Z,97325.84
2022-09-15T13:19:26.412Z,97337.06
2022-09-15T13:22:20.106Z,97330.88
2022-09-15T13:25:26.755Z,97334.03
2022-09-15T13:28:02.484Z,97325.03
2022-09-15T13:31:04.540Z,97334.81
2022-09-15T13:40:54.325Z,97329.00
2022-09-15T13:43:45.641Z,97330.38
2022-09-15T13:46:29.586Z,97335.66
2022-09-15T13:49:20.565Z,97333.16
2022-09-15T13:52:09.886Z,97337.03
2022-09-15T13:54:39.913Z,97345.84
2022-09-15T13:57:10.611Z,97342.78
2022-09-15T13:59:42.675Z,97356.44
2022-09-15T14:02:17.499Z,97357.19
2022-09-15T14:04:53.338Z,97358.59
2022-09-15T14:07:26.402Z,97356.97
2022-09-15T14:09:56.381Z,97357.09
2022-09-15T14:12:26.582Z,97362.31
2022-09-15T14:15:02.496Z,97371.63
2022-09-15T14:17:46.046Z,97379.56
2022-09-15T14:20:27.561Z,97377.34
2022-09-15T14:22:57.438Z,97379.56
2022-09-15T14:25:29.691Z,97376.19
2022-09-15T14:27:59.073Z,97383.59
2022-09-15T14:30:33.675Z,97382.16
2022-09-15T14:33:05.343Z,97392.38
2022-09-15T14:35:39.692Z,97386.59
2022-09-15T14:38:20.825Z,97386.88
2022-09-15T14:40:58.528Z,97387.16
2022-09-15T14:43:34.022Z,97389.97
2022-09-15T14:46:15.247Z,97402.88
2022-09-15T14:48:45.489Z,97405.91
2022-09-15T14:51:24.876Z,97404.19
2022-09-15T14:53:59.295Z,97415.00
2022-09-15T14:56:37.740Z,97414.41
2022-09-15T14:59:13.864Z,97420.09
2022-09-15T15:02:12.017Z,97417.59
2022-09-15T15:04:44.784Z,97420.63
2022-09-15T15:07:27.614Z,97424.06
2022-09-15T15:10:15.162Z,97424.34
2022-09-15T15:13:00.866Z,97425.84
2022-09-15T15:15:33.290Z,97430.41
2022-09-15T15:18:03.102Z,97434.63
2022-09-15T15:20:33.317Z,97429.56
2022-09-15T15:23:28.569Z,97438.53
2022-09-15T15:26:35.641Z,97442.44
2022-09-15T15:29:31.060Z,97441.66
2022-09-15T15:32:18.487Z,97447.25
2022-09-15T15:35:00.015Z,97444.59
2022-09-15T15:37:33.659Z,97458.56
2022-09-15T15:40:07.260Z,97456.38
2022-09-15T15:42:37.569Z,97465.81
2022-09-15T15:45:25.689Z,97462.16
2022-09-15T15:47:55.883Z,97468.81
2022-09-15T15:50:29.645Z,97461.84
2022-09-15T15:53:00.227Z,97471.81
2022-09-15T15:55:42.177Z,97471.94
2022-09-15T15:58:13.924Z,97470.72
2022-09-15T16:00:48.062Z,97473.22
2022-09-15T16:03:23.479Z,97477.38
2022-09-15T16:05:59.937Z,97476.16
2022-09-15T16:08:34.662Z,97483.00
2022-09-15T16:11:12.063Z,97481.59
2022-09-15T16:13:47.413Z,97486.06
2022-09-15T16:16:26.892Z,97488.31
2022-09-15T16:18:58.311Z,97499.19
2022-09-15T16:21:40.361Z,97496.53
2022-09-15T16:24:17.487Z,97495.38
2022-09-15T16:26:50.638Z,97495.56
2022-09-15T16:29:29.424Z,97496.94
2022-09-15T16:32:00.135Z,97496.13
2022-09-15T16:34:30.391Z,97499.19
2022-09-15T16:37:00.330Z,97500.19
2022-09-15T16:39:31.115Z,97501.69
2022-09-15T16:42:00.990Z,97492.94
2022-09-15T16:44:31.414Z,97495.59
2022-09-15T16:47:01.514Z,97495.88
2022-09-15T16:49:31.778Z,97491.97
2022-09-15T16:52:01.295Z,97491.13
2022-09-15T16:54:31.465Z,97491.97
2022-09-15T16:57:01.441Z,97498.38
2022-09-15T16:59:33.326Z,97496.97
2022-09-15T17:02:03.404Z,97495.44
2022-09-15T17:04:33.812Z,97498.66
2022-09-15T17:07:03.926Z,97500.00
2022-09-15T17:09:34.567Z,97500.31
2022-09-15T17:12:06.163Z,97500.84
2022-09-15T17:14:36.545Z,97503.34
2022-09-15T17:17:06.526Z,97500.84
2022-09-15T17:19:36.980Z,97503.06
2022-09-15T17:22:07.020Z,97499.22
2022-09-15T17:24:37.354Z,97503.94
2022-09-15T17:27:07.976Z,97497.00
2022-09-15T17:29:38.545Z,97496.97
2022-09-15T17:32:10.597Z,97500.88
2022-09-15T17:34:41.198Z,97501.13
2022-09-15T17:37:11.715Z,97497.25
2022-09-15T17:39:42.140Z,97495.59
2022-09-15T17:42:12.574Z,97488.38
2022-09-15T17:44:42.897Z,97497.81
2022-09-15T17:47:13.526Z,97491.97
2022-09-15T17:49:44.267Z,97491.66
2022-09-15T17:52:14.026Z,97490.44
2022-09-15T17:54:44.170Z,97490.81
2022-09-15T17:57:14.024Z,97491.56
2022-09-15T17:59:44.160Z,97484.59
2022-09-15T18:02:20.460Z,97491.09
2022-09-15T18:04:50.705Z,97484.63
2022-09-15T18:07:20.662Z,97475.44
2022-09-15T18:09:50.150Z,97476.41
2022-09-15T18:12:21.200Z,97473.91
2022-09-15T18:14:51.211Z,97470.03
2022-09-15T18:17:21.390Z,97470.03
2022-09-15T18:19:53.418Z,97472.00
2022-09-15T18:22:25.341Z,97462.25
2022-09-15T18:24:55.390Z,97463.50
2022-09-15T18:27:26.363Z,97464.34
2022-09-15T18:29:56.373Z,97469.63
2022-09-15T18:32:26.775Z,97461.84
2022-09-15T18:34:56.468Z,97460.16
2022-09-15T18:37:26.273Z,97463.66
2022-09-15T18:39:56.433Z,97459.75
2022-09-15T18:42:29.752Z,97448.34
2022-09-15T18:45:01.555Z,97450.03
2022-09-15T18:47:31.365Z,97459.44
2022-09-15T18:50:02.764Z,97447.78
2022-09-15T18:52:32.853Z,97452.50
2022-09-15T18:55:03.750Z,97442.78
2022-09-15T18:57:43.409Z,97444.41
2022-09-15T19:00:22.676Z,97441.69
2022-09-15T19:02:59.562Z,97438.84
2022-09-15T19:05:31.991Z,97441.09
2022-09-15T19:08:03.216Z,97433.16
2022-09-15T19:10:34.123Z,97427.75
2022-09-15T19:13:04.645Z,97428.88
2022-09-15T19:15:36.039Z,97427.75
2022-09-15T19:18:06.369Z,97435.41
2022-09-15T19:20:36.498Z,97432.44
2022-09-15T19:23:06.284Z,97433.41
2022-09-15T19:25:36.348Z,97435.78
2022-09-15T19:28:06.568Z,97440.19
2022-09-15T19:30:36.704Z,97437.59
2022-09-15T19:33:07.213Z,97441.94
2022-09-15T19:35:37.377Z,97443.31
2022-09-15T19:38:07.543Z,97447.34
2022-09-15T19:40:37.479Z,97444.41
2022-09-15T19:43:07.477Z,97447.31
2022-09-15T19:45:37.837Z,97451.09
2022-09-15T19:48:07.792Z,97455.16
2022-09-15T19:50:37.729Z,97450.97
2022-09-15T19:53:07.900Z,97450.28
2022-09-15T19:55:38.042Z,97453.22
2022-09-15T19:58:08.133Z,97445.84
2022-09-15T20:00:38.419Z,97436.53
2022-09-15T20:03:08.482Z,97446.69
2022-09-15T20:05:38.319Z,97446.69
2022-09-15T20:08:08.411Z,97441.81
2022-09-15T20:10:41.084Z,97446.81
2022-09-15T20:13:11.226Z,97450.56
2022-09-15T20:15:41.995Z,97443.06
2022-09-15T20:18:13.189Z,97447.78
2022-09-15T20:20:43.327Z,97448.63
2022-09-15T20:23:13.648Z,97452.50
2022-09-15T20:25:43.321Z,97452.94
2022-09-15T20:28:13.975Z,97449.75
2022-09-15T20:30:43.714Z,97447.22
2022-09-15T20:33:13.909Z,97451.84
2022-09-15T20:35:43.632Z,97457.50
2022-09-15T20:38:13.425Z,97450.59
2022-09-15T20:40:43.628Z,97447.50
2022-09-15T20:43:13.853Z,97442.75
2022-09-15T20:45:43.685Z,97440.03
2022-09-15T20:48:14.233Z,97436.41
2022-09-15T20:50:44.505Z,97447.53
2022-09-15T20:53:14.666Z,97445.06
2022-09-15T20:55:51.675Z,97438.91
2022-09-15T20:58:21.913Z,97437.09
2022-09-15T21:00:53.422Z,97427.09
2022-09-15T21:03:26.037Z,97423.63
2022-09-15T21:06:02.106Z,97420.28
2022-09-15T21:08:32.035Z,97415.84
2022-09-15T21:11:03.275Z,97423.50
2022-09-15T21:13:37.568Z,97415.81
2022-09-15T21:16:10.660Z,97411.38
2022-09-15T21:18:42.026Z,97414.06
2022-09-15T21:21:17.900Z,97412.50
2022-09-15T21:23:50.072Z,97408.47
2022-09-15T21:26:28.983Z,97410.00
2022-09-15T21:29:00.015Z,97411.72
2022-09-15T21:31:32.701Z,97415.19
2022-09-15T21:34:03.367Z,97418.25
2022-09-15T21:36:33.534Z,97432.56
2022-09-15T21:39:04.298Z,97425.59
2022-09-15T21:41:34.206Z,97434.22
2022-09-15T21:44:05.214Z,97446.72
2022-09-15T21:46:35.194Z,97448.91
2022-09-15T21:49:06.046Z,97440.03
2022-09-15T21:51:35.803Z,97466.69
2022-09-15T21:54:06.101Z,97479.09
2022-09-15T21:56:36.105Z,97493.09
2022-09-15T21:59:06.086Z,97509.53
2022-09-15T22:01:36.099Z,97499.13
2022-09-15T22:04:08.468Z,97502.53
2022-09-15T22:06:39.265Z,97512.75
2022-09-15T22:09:12.362Z,97518.84
2022-09-15T22:11:42.901Z,97536.34
2022-09-15T22:14:14.439Z,97537.31
2022-09-15T22:16:45.444Z,97515.41
2022-09-15T22:19:15.423Z,97522.78
2022-09-15T22:21:46.006Z,97512.06
2022-09-15T22:24:20.423Z,97509.19
2022-09-15T22:26:50.570Z,97523.81
2022-09-15T22:29:20.433Z,97535.03
2022-09-15T22:31:50.522Z,97545.91
2022-09-15T22:34:20.406Z,97539.78
2022-09-15T22:36:50.894Z,97556.75
2022-09-15T22:39:21.712Z,97566.56
2022-09-15T22:41:54.549Z,97559.88
2022-09-15T22:44:24.537Z,97542.16
2022-09-15T22:46:54.863Z,97518.25
2022-09-15T22:49:28.947Z,97513.00
2022-09-15T22:51:58.965Z,97514.09
2022-09-15T22:54:29.312Z,97515.88
2022-09-15T22:56:59.201Z,97519.97
2022-09-15T22:59:29.422Z,97502.97
2022-09-15T23:01:59.715Z,97504.91
2022-09-15T23:04:29.659Z,97492.00
2022-09-15T23:06:59.675Z,97480.28
2022-09-15T23:09:29.370Z,97473.56
2022-09-15T23:11:59.374Z,97464.03
2022-09-15T23:14:29.653Z,97457.78
2022-09-15T23:16:59.395Z,97467.75
2022-09-15T23:19:30.049Z,97468.22
2022-09-15T23:22:00.183Z,97467.41
2022-09-15T23:24:30.109Z,97450.94
2022-09-15T23:27:00.434Z,97449.22
2022-09-15T23:29:30.372Z,97459.97
2022-09-15T23:32:01.501Z,97460.03
2022-09-15T23:34:31.719Z,97468.38
2022-09-15T23:37:02.024Z,97456.44
2022-09-15T23:39:32.042Z,97457.88
2022-09-15T23:42:02.664Z,97453.09
2022-09-15T23:44:32.676Z,97438.28
2022-09-15T23:47:02.302Z,97433.50
2022-09-15T23:49:32.409Z,97439.94
2022-09-15T23:52:02.534Z,97437.09
2022-09-15T23:54:32.763Z,97436.03
2022-09-15T23:57:02.693Z,97445.78
2022-09-15T23:59:32.172Z,97452.13
